Time;durP1;ratioP1;P1;durP2;ratioP2;P2;SDS_P1;SDS_P2;PMS_P1;PMS_P2;Temp;Humidity;BMP_temperature;BMP_pressure;BME280_temperature;BME280_humidity;BME280_pressure;Samples;Min_cycle;Max_cycle;Signal;HPM_P1;HPM_P2
2022/01/13 00:00:31;;;;;;;;;33.25;30.00;;;;;4.42;85.49;103606.94;5002475;28;45397;-79
2022/01/13 00:02:56;;;;;;;;;39.00;34.25;;;;;4.38;85.62;103611.47;5001142;28;45281;-79
2022/01/13 00:05:27;;;;;;;;;29.75;27.25;;;;;4.38;86.32;103619.38;5002435;28;45367;-78
2022/01/13 00:07:55;;;;;;;;;43.50;38.25;;;;;4.32;85.76;103606.44;5002255;28;45305;-78
2022/01/13 00:10:22;;;;;;;;;42.25;36.50;;;;;4.25;86.65;103592.66;5017139;28;45344;-79
2022/01/13 00:12:47;;;;;;;;;40.00;35.50;;;;;4.34;86.37;103604.59;5002372;28;45325;-78
2022/01/13 00:18:00;;;;;;;;;33.25;32.75;;;;;4.31;86.52;103602.09;5006784;28;45365;-78
2022/01/13 00:23:40;;;;;;;;;38.25;35.25;;;;;4.37;86.22;103612.38;5022295;28;45240;-79
2022/01/13 00:25:38;;;;;;;;;37.00;31.00;;;;;4.24;86.53;103601.50;5021392;28;45272;-79
2022/01/13 00:28:13;;;;;;;;;40.50;36.75;;;;;4.34;86.44;103620.41;5021853;28;45478;-79
2022/01/13 00:30:39;;;;;;;;;30.50;28.25;;;;;4.32;86.35;103611.72;5021680;28;45504;-79
2022/01/13 00:33:04;;;;;;;;;41.00;34.75;;;;;4.23;86.64;103588.38;5020607;28;45367;-79
2022/01/13 00:35:30;;;;;;;;;30.50;30.50;;;;;4.24;86.46;103593.59;5021992;28;45543;-79
2022/01/13 00:37:55;;;;;;;;;31.00;28.25;;;;;4.28;86.30;103610.13;5021703;28;45312;-79
2022/01/13 00:40:20;;;;;;;;;21.25;20.50;;;;;4.29;86.74;103606.56;5021638;28;45313;-78
2022/01/13 00:42:46;;;;;;;;;32.25;28.50;;;;;4.23;86.61;103605.06;5020501;28;45965;-78
2022/01/13 00:45:14;;;;;;;;;35.25;30.00;;;;;4.21;87.18;103606.00;5021786;28;45288;-78
2022/01/13 00:47:40;;;;;;;;;40.50;34.75;;;;;4.14;87.00;103594.88;5020232;28;48772;-78
2022/01/13 00:50:07;;;;;;;;;23.25;22.25;;;;;4.19;87.20;103607.88;5021575;28;45306;-78
2022/01/13 00:52:32;;;;;;;;;30.25;28.50;;;;;4.17;88.39;103606.13;5019034;28;45206;-79
2022/01/13 00:55:01;;;;;;;;;36.00;29.75;;;;;4.17;87.16;103610.56;5020001;28;46077;-79
2022/01/13 00:57:28;;;;;;;;;35.00;31.00;;;;;4.10;87.19;103595.94;5021555;28;46220;-79
2022/01/13 00:59:53;;;;;;;;;22.25;17.75;;;;;4.17;87.26;103597.41;5021300;28;45327;-78
2022/01/13 01:02:19;;;;;;;;;40.00;33.00;;;;;4.24;86.95;103608.53;5021368;28;45238;-79
2022/01/13 01:04:44;;;;;;;;;27.25;25.25;;;;;4.25;87.25;103619.00;5021373;28;45150;-79
2022/01/13 01:07:09;;;;;;;;;20.50;18.75;;;;;4.18;86.64;103601.72;5019522;28;47603;-79
2022/01/13 01:12:03;;;;;;;;;24.00;21.00;;;;;4.26;86.91;103617.22;5021281;28;45236;-78
2022/01/13 01:14:32;;;;;;;;;24.00;20.25;;;;;4.25;86.81;103612.91;5021097;28;45621;-79
2022/01/13 01:16:58;;;;;;;;;22.50;19.00;;;;;4.27;86.53;103624.19;5019625;28;48034;-79
2022/01/13 01:19:28;;;;;;;;;17.75;16.25;;;;;4.17;86.20;103616.66;5002147;28;45275;-78
2022/01/13 01:22:17;;;;;;;;;27.75;23.25;;;;;4.23;86.62;103627.88;5033130;28;45321;-79
2022/01/13 01:27:42;;;;;;;;;22.50;19.50;;;;;4.07;85.87;103625.00;4978295;28;45558;-79
2022/01/13 01:30:23;;;;;;;;;24.75;22.00;;;;;4.00;86.07;103612.06;5001100;28;45311;-78
2022/01/13 01:32:49;;;;;;;;;26.50;22.50;;;;;3.91;87.01;103621.19;5032823;28;45317;-79
2022/01/13 01:35:16;;;;;;;;;22.00;21.50;;;;;3.75;86.89;103599.88;5000966;28;45270;-79
2022/01/13 01:37:43;;;;;;;;;25.00;22.25;;;;;3.69;86.74;103599.22;5000966;28;45229;-79
2022/01/13 01:40:10;;;;;;;;;29.25;22.75;;;;;3.80;86.94;103623.34;4999443;28;45243;-78
2022/01/13 01:42:35;;;;;;;;;27.25;24.75;;;;;3.66;87.59;103592.31;5032752;28;45362;-79
2022/01/13 01:45:02;;;;;;;;;26.00;21.75;;;;;3.69;87.56;103599.22;5000868;28;45536;-79
2022/01/13 01:47:29;;;;;;;;;24.50;21.50;;;;;3.63;87.62;103601.19;5000719;28;45329;-79
2022/01/13 01:49:58;;;;;;;;;26.00;22.00;;;;;3.59;87.67;103596.94;5032754;28;45325;-79
2022/01/13 01:52:25;;;;;;;;;22.00;21.00;;;;;3.66;87.68;103603.69;5016205;28;45530;-79
2022/01/13 01:54:51;;;;;;;;;28.50;25.50;;;;;3.63;87.80;103598.56;5000560;28;45292;-79
2022/01/13 01:57:21;;;;;;;;;21.50;19.25;;;;;3.57;87.57;103585.63;5000494;28;46265;-78
2022/01/13 01:59:46;;;;;;;;;19.25;17.25;;;;;3.75;87.74;103617.44;5000669;28;45236;-79
2022/01/13 02:02:14;;;;;;;;;22.25;20.75;;;;;3.81;86.96;103626.84;5000462;28;45226;-79
2022/01/13 02:04:40;;;;;;;;;22.25;17.75;;;;;3.77;87.65;103612.97;5000205;28;45326;-78
2022/01/13 02:07:07;;;;;;;;;26.00;24.00;;;;;3.76;87.06;103609.47;5032053;28;47251;-79
2022/01/13 02:09:36;;;;;;;;;20.00;19.50;;;;;3.72;86.96;103613.16;5032037;28;45405;-79
2022/01/13 02:12:07;;;;;;;;;21.00;18.00;;;;;3.80;87.30;103618.09;5000537;28;45237;-78
2022/01/13 02:14:48;;;;;;;;;20.75;18.50;;;;;3.71;87.24;103597.41;5000446;28;45243;-79
2022/01/13 02:17:21;;;;;;;;;25.00;20.25;;;;;3.69;87.50;103600.09;5000774;28;45624;-79
2022/01/13 02:19:50;;;;;;;;;26.25;24.00;;;;;3.75;86.54;103622.69;5020133;28;45249;-79
2022/01/13 02:22:15;;;;;;;;;31.00;27.50;;;;;3.69;86.50;103613.25;5020094;28;45341;-79
2022/01/13 02:24:41;;;;;;;;;23.75;21.50;;;;;3.61;86.68;103607.41;5019877;28;45560;-78
2022/01/13 02:27:07;;;;;;;;;25.75;22.50;;;;;3.61;87.08;103610.91;5020028;28;45436;-79
2022/01/13 02:29:34;;;;;;;;;22.75;19.00;;;;;3.65;87.02;103625.66;5020029;28;45387;-79
2022/01/13 02:32:00;;;;;;;;;18.25;15.75;;;;;3.60;86.85;103624.97;5018433;28;45302;-78
2022/01/13 02:34:25;;;;;;;;;21.50;17.00;;;;;3.58;86.70;103610.16;5018656;28;45195;-79
2022/01/13 02:36:54;;;;;;;;;23.50;21.00;;;;;3.62;87.43;103617.88;5019999;28;45668;-79
2022/01/13 02:39:24;;;;;;;;;23.00;20.50;;;;;3.59;86.60;103619.78;5018359;28;45405;-78
2022/01/13 02:41:50;;;;;;;;;22.25;20.50;;;;;3.50;86.65;103603.41;5020018;28;45319;-79
2022/01/13 02:44:20;;;;;;;;;25.25;22.25;;;;;3.53;86.89;103612.94;5018518;28;45693;-78
2022/01/13 02:49:17;;;;;;;;;21.75;20.25;;;;;3.44;86.52;103616.78;5019672;28;45231;-79
2022/01/13 02:51:46;;;;;;;;;22.50;20.00;;;;;3.32;86.95;103609.34;5018584;28;45277;-79
2022/01/13 02:54:12;;;;;;;;;18.75;18.50;;;;;3.31;87.13;103619.00;5017976;28;47205;-79
2022/01/13 02:56:39;;;;;;;;;20.75;20.25;;;;;3.36;87.39;103610.94;5019473;28;46448;-79
2022/01/13 02:59:05;;;;;;;;;26.25;25.50;;;;;3.37;87.69;103610.03;5018097;28;45286;-79
2022/01/13 03:01:31;;;;;;;;;29.25;21.25;;;;;3.25;87.25;103591.16;5019475;28;45248;-79
2022/01/13 03:03:59;;;;;;;;;16.33;15.67;;;;;3.40;87.53;103621.31;5018182;28;46361;-79
2022/01/13 03:06:32;;;;;;;;;18.50;17.25;;;;;3.31;86.80;103605.84;5019195;28;46007;-79
2022/01/13 03:08:58;;;;;;;;;21.00;17.50;;;;;3.39;87.55;103616.09;5017898;28;45816;-79
2022/01/13 03:11:30;;;;;;;;;24.50;17.75;;;;;3.39;86.59;103614.31;5019312;28;45280;-79
2022/01/13 03:13:56;;;;;;;;;17.00;15.00;;;;;3.30;86.92;103609.41;5019574;28;45232;-79
2022/01/13 03:16:21;;;;;;;;;15.00;15.00;;;;;3.32;87.28;103602.31;5019040;28;47327;-79
2022/01/13 03:18:47;;;;;;;;;20.00;18.50;;;;;3.34;87.46;103616.25;5009312;28;45301;-79
2022/01/13 03:21:12;;;;;;;;;18.00;15.50;;;;;3.20;87.75;103594.88;5003363;28;45254;-79
2022/01/13 03:23:37;;;;;;;;;21.75;19.00;;;;;3.23;87.20;103603.50;5003192;28;45704;-79
2022/01/13 03:26:04;;;;;;;;;15.00;14.50;;;;;3.20;87.64;103600.97;5001621;28;47289;-79
2022/01/13 03:28:31;;;;;;;;;20.75;17.50;;;;;3.33;87.74;103609.31;5003046;28;45368;-79
2022/01/13 03:31:02;;;;;;;;;19.00;17.50;;;;;3.03;87.59;103559.53;5034731;28;45369;-79
2022/01/13 03:33:28;;;;;;;;;14.50;14.00;;;;;3.28;87.32;103595.44;5002968;28;45226;-79
2022/01/13 03:35:55;;;;;;;;;11.50;11.50;;;;;3.36;86.88;103609.19;5001430;28;47913;-79
2022/01/13 03:38:20;;;;;;;;;15.25;14.50;;;;;3.32;87.50;103604.94;5002748;28;45251;-79
2022/01/13 03:40:46;;;;;;;;;16.25;14.50;;;;;3.36;86.96;103605.69;5002788;28;45351;-79
2022/01/13 03:43:11;;;;;;;;;14.50;13.50;;;;;3.39;87.77;103611.69;5002781;28;45439;-80
2022/01/13 03:45:37;;;;;;;;;15.25;15.25;;;;;3.30;87.41;103592.75;5001191;28;47288;-79
2022/01/13 03:48:03;;;;;;;;;14.50;14.25;;;;;3.48;87.68;103620.16;5018127;28;45328;-79
2022/01/13 03:50:29;;;;;;;;;18.00;14.50;;;;;3.44;87.10;103614.16;5002801;28;45170;-79
2022/01/13 03:53:01;;;;;;;;;19.25;14.25;;;;;3.47;87.80;103626.34;5001089;28;47409;-79
2022/01/13 03:55:36;;;;;;;;;14.25;13.75;;;;;3.42;87.36;103616.00;5002555;28;47039;-79
2022/01/13 03:58:20;;;;;;;;;14.00;13.50;;;;;3.37;86.75;103618.78;5002459;28;45306;-80
2022/01/13 04:01:04;;;;;;;;;14.75;12.00;;;;;3.34;87.27;103615.41;5002471;28;45486;-79
2022/01/13 04:03:29;;;;;;;;;14.67;13.67;;;;;3.32;87.75;103618.06;5034514;28;45627;-79
2022/01/13 04:06:27;;;;;;;;;14.00;14.00;;;;;3.28;86.94;103609.47;5002405;28;45289;-79
2022/01/13 04:08:54;;;;;;;;;14.00;13.00;;;;;3.21;86.73;103604.47;5017521;28;45411;-79
2022/01/13 04:11:25;;;;;;;;;11.67;11.67;;;;;3.24;87.33;103613.13;5002161;28;45184;-79
2022/01/13 04:14:00;;;;;;;;;12.00;10.75;;;;;3.19;87.97;103601.91;5002242;28;45336;-79
2022/01/13 04:16:29;;;;;;;;;10.25;9.50;;;;;3.23;87.77;103608.75;5002064;28;45446;-79
2022/01/13 04:19:04;;;;;;;;;13.00;12.00;;;;;3.21;87.57;103602.72;5048511;28;45260;-79
2022/01/13 04:21:31;;;;;;;;;10.67;10.67;;;;;3.24;87.13;103609.63;5022224;28;45249;-79
2022/01/13 04:23:57;;;;;;;;;11.00;9.00;;;;;3.21;87.75;103601.84;5022066;28;45285;-79
2022/01/13 04:26:31;;;;;;;;;11.00;10.33;;;;;3.22;87.79;103593.03;5022038;28;45217;-79
2022/01/13 04:31:38;;;;;;;;;12.67;9.33;;;;;3.33;87.34;103590.03;5021889;28;45346;-79
2022/01/13 04:34:03;;;;;;;;;8.00;7.33;;;;;3.27;87.34;103581.44;5021896;28;45355;-79
2022/01/13 04:36:29;;;;;;;;;10.33;9.00;;;;;3.36;86.67;103598.66;5021785;28;46185;-79
2022/01/13 04:38:54;;;;;;;;;9.00;9.00;;;;;3.22;86.62;103580.75;5021820;28;45298;-78
2022/01/13 04:41:30;;;;;;;;;7.33;6.33;;;;;3.30;87.13;103605.91;5021931;28;45473;-79
2022/01/13 04:43:56;;;;;;;;;8.67;8.67;;;;;3.26;87.49;103603.38;5020422;28;47361;-79
2022/01/13 04:46:22;;;;;;;;;8.33;7.67;;;;;3.17;87.25;103589.72;5021401;28;46063;-79
2022/01/13 04:48:48;;;;;;;;;5.67;3.00;;;;;3.10;86.75;103581.19;5021711;28;45240;-79
2022/01/13 04:51:13;;;;;;;;;8.00;8.00;;;;;2.97;86.96;103576.38;5021800;28;45198;-79
2022/01/13 04:53:39;;;;;;;;;7.33;7.33;;;;;3.01;87.34;103603.41;5021677;28;45287;-79
2022/01/13 04:56:13;;;;;;;;;7.75;7.00;;;;;2.93;87.14;103585.25;5021466;28;45347;-79
2022/01/13 04:58:38;;;;;;;;;7.00;7.00;;;;;3.05;86.95;103607.63;5020285;28;45282;-79
2022/01/13 05:01:04;;;;;;;;;11.00;8.67;;;;;2.94;87.75;103592.25;5021375;28;45424;-79
2022/01/13 05:03:30;;;;;;;;;9.67;7.00;;;;;3.02;87.68;103589.34;5020218;28;46214;-79
2022/01/13 05:05:55;;;;;;;;;7.33;7.00;;;;;2.98;87.85;103585.97;5020132;28;48174;-79
2022/01/13 05:08:21;;;;;;;;;10.75;8.25;;;;;3.11;88.13;103588.19;5019921;28;45260;-80
2022/01/13 05:10:46;;;;;;;;;12.33;12.33;;;;;3.11;87.70;103594.28;5021328;28;45442;-77
2022/01/13 05:13:12;;;;;;;;;19.25;18.50;;;;;3.10;88.03;103599.59;5021285;28;45346;-77
2022/01/13 05:15:40;;;;;;;;;9.00;7.00;;;;;3.14;87.73;103609.06;5021127;28;46041;-77
2022/01/13 05:23:44;;;;;;;;;8.00;7.00;;;;;2.98;87.86;103599.13;4999903;28;45462;-78
2022/01/13 05:26:10;;;;;;;;;8.00;6.67;;;;;2.98;87.45;103591.22;4999787;28;47257;-79
2022/01/13 05:28:36;;;;;;;;;10.33;8.67;;;;;3.02;87.05;103602.47;5001343;28;45210;-78
2022/01/13 05:31:01;;;;;;;;;8.00;7.00;;;;;2.96;87.91;103600.94;5001103;28;45206;-78
2022/01/13 05:33:26;;;;;;;;;8.25;7.75;;;;;2.84;87.92;103578.56;5001291;28;45257;-78
2022/01/13 05:35:52;;;;;;;;;9.00;9.00;;;;;3.01;88.18;103603.41;5001077;28;45377;-78
2022/01/13 05:38:18;;;;;;;;;8.00;7.00;;;;;2.82;87.83;103580.41;5000686;28;45208;-78
2022/01/13 05:40:44;;;;;;;;;8.00;7.67;;;;;3.00;88.35;103594.66;5000803;28;45327;-80
2022/01/13 05:43:10;;;;;;;;;10.00;7.00;;;;;2.89;87.23;103574.03;5000997;28;45317;-78
2022/01/13 05:45:36;;;;;;;;;13.00;10.67;;;;;2.96;88.02;103576.44;4999156;28;45398;-78
2022/01/13 05:48:02;;;;;;;;;9.33;8.67;;;;;3.03;87.73;103581.41;5015956;28;45349;-77
2022/01/13 05:50:31;;;;;;;;;9.33;8.67;;;;;3.05;87.45;103596.28;5016438;28;45353;-78
2022/01/13 05:52:56;;;;;;;;;10.33;7.67;;;;;2.96;87.22;103593.03;5000799;28;45178;-79
2022/01/13 05:55:22;;;;;;;;;8.00;6.67;;;;;2.92;87.58;103577.44;5000524;28;46178;-77
2022/01/13 05:57:48;;;;;;;;;6.67;6.33;;;;;2.92;86.75;103585.31;4998851;28;45855;-77
2022/01/13 06:00:16;;;;;;;;;9.00;8.67;;;;;2.97;87.96;103602.66;5000982;28;45242;-77
2022/01/13 06:02:43;;;;;;;;;8.67;8.67;;;;;2.81;88.30;103575.19;5000550;28;45383;-79
2022/01/13 06:05:09;;;;;;;;;15.00;11.50;;;;;2.90;88.15;103594.13;4999232;28;48400;-79
2022/01/13 06:07:36;;;;;;;;;9.67;9.33;;;;;2.96;88.10;103590.41;5000381;28;45292;-78
2022/01/13 06:10:03;;;;;;;;;7.67;7.67;;;;;2.99;88.50;103587.69;5000367;28;45234;-78
2022/01/13 06:12:33;;;;;;;;;9.67;9.00;;;;;2.99;88.31;103584.22;5000593;28;45556;-79
2022/01/13 06:15:04;;;;;;;;;30.50;30.50;;;;;3.05;87.82;103591.84;4996754;28;48806;-79
2022/01/13 06:17:29;;;;;;;;;19.25;15.25;;;;;3.05;88.16;103583.97;5002365;28;45450;-79
2022/01/13 06:19:56;;;;;;;;;25.50;22.50;;;;;3.18;88.09;103599.31;5018859;28;45247;-78
2022/01/13 06:22:22;;;;;;;;;15.75;14.75;;;;;3.03;87.75;103551.66;5018855;28;45490;-78
2022/01/13 06:24:48;;;;;;;;;11.00;9.00;;;;;3.21;88.25;103586.06;5018704;28;47187;-78
2022/01/13 06:27:14;;;;;;;;;11.67;10.33;;;;;3.27;88.12;103599.00;5018704;28;45249;-77
2022/01/13 06:29:39;;;;;;;;;11.33;8.00;;;;;3.27;88.30;103601.63;5019062;28;45342;-78
2022/01/13 06:32:05;;;;;;;;;11.33;11.00;;;;;3.24;88.66;103597.34;5020005;28;45214;-79
2022/01/13 06:34:30;;;;;;;;;9.67;8.67;;;;;3.21;88.28;103597.47;5020056;28;45296;-77
2022/01/13 06:36:55;;;;;;;;;9.67;9.67;;;;;3.11;87.79;103590.81;5020186;28;45516;-79
2022/01/13 06:39:21;;;;;;;;;12.00;9.00;;;;;3.12;87.49;103595.97;5018603;28;45261;-77
2022/01/13 06:41:46;;;;;;;;;19.00;17.75;;;;;3.07;87.53;103579.53;5019871;28;45462;-78
2022/01/13 06:44:12;;;;;;;;;20.33;16.00;;;;;3.15;88.09;103593.25;5019883;28;45222;-78
2022/01/13 06:46:37;;;;;;;;;15.50;13.50;;;;;3.21;87.23;103593.97;5018311;28;45630;-78
2022/01/13 06:49:03;;;;;;;;;10.33;10.33;;;;;3.14;88.13;103588.03;5020154;28;45237;-77
2022/01/13 06:51:28;;;;;;;;;15.67;13.33;;;;;3.13;87.28;103579.31;5006868;28;47141;-78
2022/01/13 06:53:53;;;;;;;;;16.00;12.67;;;;;3.17;87.45;103587.94;4998695;28;47267;-78
2022/01/13 06:56:19;;;;;;;;;34.00;30.00;;;;;3.14;87.53;103588.03;4999789;28;45388;-80
2022/01/13 06:58:46;;;;;;;;;48.50;39.75;;;;;3.01;87.54;103563.97;4999028;28;45392;-79
2022/01/13 07:01:11;;;;;;;;;11.67;11.67;;;;;3.21;87.07;103602.72;4999038;28;46062;-81
2022/01/13 07:03:37;;;;;;;;;13.33;12.00;;;;;3.09;87.71;103590.88;5007199;28;46015;-79
2022/01/13 07:06:02;;;;;;;;;22.50;19.00;;;;;3.14;87.14;103602.06;5004592;28;45291;-79
2022/01/13 07:08:27;;;;;;;;;21.00;20.00;;;;;3.06;87.46;103590.09;5007028;28;45299;-79
2022/01/13 07:10:53;;;;;;;;;19.33;17.00;;;;;3.08;87.35;103590.91;4998080;28;45275;-79
2022/01/13 07:13:18;;;;;;;;;10.67;8.67;;;;;3.18;86.85;103604.56;5014642;28;48454;-79
2022/01/13 07:15:45;;;;;;;;;10.67;9.00;;;;;3.13;87.72;103596.84;5000042;28;45263;-79
2022/01/13 07:18:11;;;;;;;;;8.00;7.67;;;;;3.12;87.39;103606.50;5015041;28;45275;-78
2022/01/13 07:20:39;;;;;;;;;13.00;11.00;;;;;3.11;88.17;103623.19;4999875;28;45280;-77
2022/01/13 07:23:04;;;;;;;;;7.33;6.67;;;;;3.04;87.19;103608.56;4999452;28;45442;-79
2022/01/13 07:25:30;;;;;;;;;11.67;11.00;;;;;2.96;88.52;103603.56;4999590;28;45316;-78
2022/01/13 07:27:55;;;;;;;;;11.75;11.75;;;;;3.02;87.28;103611.22;4997119;28;45382;-78
2022/01/13 07:30:21;;;;;;;;;9.00;9.00;;;;;3.01;87.44;103614.78;4998993;28;45345;-80
2022/01/13 07:32:46;;;;;;;;;9.00;7.67;;;;;2.82;87.83;103577.78;5000112;28;45397;-79
2022/01/13 07:35:12;;;;;;;;;14.75;14.75;;;;;2.95;87.54;103593.97;5013516;28;45504;-81
2022/01/13 07:37:39;;;;;;;;;12.00;10.00;;;;;2.93;88.29;103602.81;5017598;28;45294;-80
2022/01/13 07:40:05;;;;;;;;;14.33;10.33;;;;;2.92;87.48;103604.56;4998731;28;45229;-79
2022/01/13 07:42:31;;;;;;;;;9.33;9.33;;;;;2.85;87.74;103590.81;4999120;28;45923;-77
2022/01/13 07:44:56;;;;;;;;;15.25;12.75;;;;;2.85;88.07;103603.09;5014531;28;45656;-80
2022/01/13 07:47:22;;;;;;;;;9.67;9.33;;;;;2.89;88.07;103610.81;5001491;28;45422;-80
2022/01/13 07:49:47;;;;;;;;;10.50;9.50;;;;;2.80;87.68;103590.09;4999822;28;45292;-79
2022/01/13 07:52:12;;;;;;;;;15.50;12.50;;;;;2.92;87.65;103614.22;4999334;28;45250;-79
2022/01/13 07:54:38;;;;;;;;;10.33;9.00;;;;;2.92;88.03;103609.84;4999216;28;45274;-79
2022/01/13 07:57:03;;;;;;;;;12.25;11.25;;;;;2.86;87.79;103603.03;4999643;28;45180;-76
2022/01/13 07:59:29;;;;;;;;;11.75;9.25;;;;;2.86;88.04;103595.16;4997484;28;45864;-77
2022/01/13 08:01:56;;;;;;;;;27.75;25.25;;;;;2.97;88.24;103612.31;4996257;28;46166;-77
2022/01/13 08:04:21;;;;;;;;;11.00;11.00;;;;;2.92;87.77;103604.56;5017012;28;45503;-77
2022/01/13 08:06:47;;;;;;;;;9.75;8.25;;;;;2.93;86.85;103605.44;5000427;28;45317;-77
2022/01/13 08:09:13;;;;;;;;;16.00;10.67;;;;;2.78;87.54;103581.41;5003319;28;45312;-77
2022/01/13 08:11:38;;;;;;;;;11.33;11.33;;;;;2.81;88.06;103581.28;5019447;28;47412;-77
2022/01/13 08:14:03;;;;;;;;;7.00;7.00;;;;;2.91;88.10;103605.50;5007376;28;45325;-77
2022/01/13 08:16:33;;;;;;;;;12.00;10.00;;;;;2.86;87.28;103595.16;5008635;28;45650;-76
2022/01/13 08:21:42;;;;;;;;;12.67;12.00;;;;;2.96;87.45;103607.97;5021434;28;45733;-77
2022/01/13 08:24:08;;;;;;;;;12.67;12.67;;;;;2.92;87.18;103593.19;5022817;28;45368;-76
2022/01/13 08:26:33;;;;;;;;;13.00;11.33;;;;;2.88;87.50;103593.31;5022484;28;45409;-78
2022/01/13 08:28:59;;;;;;;;;35.75;29.00;;;;;2.92;87.26;103603.72;5024909;28;45360;-77
2022/01/13 08:31:24;;;;;;;;;13.25;12.00;;;;;2.95;88.23;103608.88;5025063;28;46262;-77
2022/01/13 08:33:50;;;;;;;;;9.33;8.33;;;;;2.86;87.72;103597.78;5021276;28;45334;-77
2022/01/13 08:36:15;;;;;;;;;19.67;13.67;;;;;2.93;86.82;103606.28;5024928;28;45329;-77
2022/01/13 08:38:41;;;;;;;;;14.33;12.67;;;;;2.86;87.51;103586.41;5027037;28;45278;-77
2022/01/13 08:41:06;;;;;;;;;12.67;11.67;;;;;2.96;88.22;103603.56;5028268;28;46132;-77
2022/01/13 08:43:33;;;;;;;;;12.00;11.67;;;;;2.99;87.15;103592.94;5030282;28;45352;-77
2022/01/13 08:45:59;;;;;;;;;30.00;24.75;;;;;3.05;88.07;103594.50;5030370;28;45308;-79
2022/01/13 08:48:25;;;;;;;;;26.75;25.75;;;;;3.14;88.35;103611.69;5031327;28;45275;-77
2022/01/13 08:50:50;;;;;;;;;19.00;14.67;;;;;3.16;87.34;103617.78;5030852;28;46306;-77
2022/01/13 08:53:16;;;;;;;;;14.00;14.00;;;;;3.20;87.95;103610.66;5030569;28;45271;-77
2022/01/13 08:55:42;;;;;;;;;15.50;14.75;;;;;3.21;87.80;103615.84;5031796;28;45242;-77
2022/01/13 08:58:07;;;;;;;;;20.75;16.25;;;;;3.25;87.28;103624.47;5033249;28;46264;-77
2022/01/13 09:00:36;;;;;;;;;66.25;50.00;;;;;3.17;87.72;103606.34;5031190;28;45209;-76
2022/01/13 09:03:08;;;;;;;;;29.25;26.50;;;;;3.27;87.81;103620.03;5030270;28;45297;-77
2022/01/13 09:05:35;;;;;;;;;70.75;52.00;;;;;3.24;87.33;103614.88;5018340;28;45475;-77
2022/01/13 09:08:06;;;;;;;;;22.00;18.00;;;;;3.17;87.35;103616.84;5013322;28;45414;-77
2022/01/13 09:10:31;;;;;;;;;10.75;9.25;;;;;3.18;87.53;103612.47;5023223;28;47427;-77
2022/01/13 09:12:57;;;;;;;;;13.50;10.25;;;;;3.11;87.38;103606.59;5021682;28;45551;-77
2022/01/13 09:15:33;;;;;;;;;12.75;11.75;;;;;3.16;87.26;103625.66;5002127;28;45277;-77
2022/01/13 09:18:06;;;;;;;;;9.67;9.00;;;;;3.20;86.65;103636.94;5012087;28;45207;-76
2022/01/13 09:20:32;;;;;;;;;16.00;14.00;;;;;3.09;87.20;103621.53;5025594;28;45918;-77
2022/01/13 09:22:57;;;;;;;;;10.67;8.67;;;;;3.13;87.12;103631.91;5024644;28;45279;-77
2022/01/13 09:25:22;;;;;;;;;11.00;11.00;;;;;3.24;87.55;103642.03;5029848;28;45209;-77
2022/01/13 09:27:48;;;;;;;;;46.00;39.25;;;;;3.21;87.66;103628.13;5013224;28;45290;-77
2022/01/13 09:30:14;;;;;;;;;18.50;17.50;;;;;3.24;87.25;103625.41;5010780;28;45274;-77
2022/01/13 09:32:40;;;;;;;;;33.75;33.00;;;;;3.24;87.37;103625.41;5009078;28;45323;-77
2022/01/13 09:35:07;;;;;;;;;20.50;19.50;;;;;3.30;87.60;103633.06;5022653;28;45309;-78
2022/01/13 09:37:35;;;;;;;;;10.75;10.75;;;;;3.29;86.96;103620.81;5010117;28;45673;-76
2022/01/13 09:40:02;;;;;;;;;22.50;21.75;;;;;3.50;86.84;103652.53;5003247;28;45282;-77
2022/01/13 09:42:30;;;;;;;;;22.25;22.00;;;;;3.52;86.80;103650.69;5000726;28;45285;-78
2022/01/13 09:44:57;;;;;;;;;44.50;36.25;;;;;3.50;86.43;103652.53;4997182;28;45443;-78
2022/01/13 09:47:24;;;;;;;;;10.33;10.33;;;;;3.53;86.94;103655.03;5004540;28;45326;-78
2022/01/13 09:49:50;;;;;;;;;14.33;14.00;;;;;3.50;87.16;103657.78;5017017;28;46776;-77
2022/01/13 09:52:15;;;;;;;;;9.00;8.67;;;;;3.41;86.80;103644.06;4997302;28;45392;-78
2022/01/13 09:54:41;;;;;;;;;10.67;8.67;;;;;3.49;86.53;103656.06;5000254;28;45620;-78
2022/01/13 09:57:08;;;;;;;;;13.67;10.00;;;;;3.55;85.99;103661.09;5001735;28;45227;-78
2022/01/13 09:59:33;;;;;;;;;60.00;45.50;;;;;3.49;86.36;103656.94;4999994;28;48391;-78
2022/01/13 10:01:58;;;;;;;;;18.25;17.75;;;;;3.44;86.05;103652.75;4999339;28;45628;-78
2022/01/13 10:04:24;;;;;;;;;20.50;18.50;;;;;3.46;86.18;103648.28;5000398;28;45263;-78
2022/01/13 10:06:49;;;;;;;;;18.75;13.50;;;;;3.60;86.10;103667.06;4999805;28;46112;-78
2022/01/13 10:09:16;;;;;;;;;14.33;11.67;;;;;3.65;86.39;103670.38;5000789;28;45394;-79
2022/01/13 10:11:53;;;;;;;;;57.25;44.00;;;;;3.56;85.89;103654.91;5001029;28;45358;-79
2022/01/13 10:17:01;;;;;;;;;34.75;31.50;;;;;3.50;85.99;103653.38;5001543;28;45313;-79
2022/01/13 10:19:39;;;;;;;;;21.50;20.00;;;;;3.56;86.04;103656.72;5019615;28;46086;-78
2022/01/13 10:22:05;;;;;;;;;36.50;33.00;;;;;3.64;86.21;103668.66;5007267;28;45521;-78
2022/01/13 10:24:33;;;;;;;;;23.00;18.25;;;;;3.61;85.83;103658.25;5016956;28;45308;-78
2022/01/13 10:27:09;;;;;;;;;16.00;14.75;;;;;3.73;86.01;103669.22;5001063;28;45369;-77
2022/01/13 10:29:40;;;;;;;;;35.75;30.25;;;;;3.77;86.19;103655.06;5000749;28;45397;-77
2022/01/13 10:32:08;;;;;;;;;80.25;59.25;;;;;3.66;86.11;103642.31;5000249;28;45341;-78
2022/01/13 10:34:37;;;;;;;;;15.00;14.75;;;;;3.72;85.68;103649.09;5000457;28;45305;-77
2022/01/13 10:37:04;;;;;;;;;17.75;17.00;;;;;3.69;86.34;103643.97;5000052;28;46360;-77
2022/01/13 10:39:45;;;;;;;;;36.25;31.25;;;;;3.76;86.35;103656.84;5000228;28;45412;-77
2022/01/13 10:44:55;;;;;;;;;17.00;15.00;;;;;3.87;85.69;103651.19;4999448;28;45383;-78
2022/01/13 10:47:20;;;;;;;;;9.00;8.33;;;;;3.84;85.83;103647.78;4997921;28;45467;-77
2022/01/13 10:49:50;;;;;;;;;9.33;9.33;;;;;3.73;85.21;103637.66;5000226;28;45342;-79
2022/01/13 10:52:24;;;;;;;;;12.67;12.67;;;;;3.62;85.02;103640.72;5005124;28;45149;-78
2022/01/13 10:55:00;;;;;;;;;68.25;52.00;;;;;3.70;85.53;103648.28;5018829;28;45333;-78
2022/01/13 10:57:27;;;;;;;;;39.50;34.00;;;;;3.70;85.43;103648.28;4997990;28;45441;-78
2022/01/13 10:59:52;;;;;;;;;31.25;26.00;;;;;3.63;86.09;103629.25;5003405;28;45315;-78
2022/01/13 11:02:19;;;;;;;;;58.25;45.25;;;;;3.71;85.77;103629.81;4999835;28;45300;-76
2022/01/13 11:04:45;;;;;;;;;27.50;27.50;;;;;3.77;85.19;103629.59;5013785;28;45337;-78
2022/01/13 11:07:23;;;;;;;;;19.25;15.75;;;;;3.90;85.71;103637.03;5014793;28;46102;-76
2022/01/13 11:09:53;;;;;;;;;10.33;10.00;;;;;3.91;84.95;103636.97;5000092;28;45388;-77
2022/01/13 11:12:32;;;;;;;;;63.25;49.75;;;;;3.87;85.37;103638.03;5020642;28;45367;-77
2022/01/13 11:15:06;;;;;;;;;17.00;15.75;;;;;3.88;85.04;103637.09;5000998;28;45316;-76
2022/01/13 11:17:35;;;;;;;;;36.00;29.00;;;;;3.79;85.36;103611.13;5003902;28;45614;-76
2022/01/13 11:20:02;;;;;;;;;21.67;11.67;;;;;3.89;85.63;103636.16;5019525;28;45298;-77
2022/01/13 11:22:29;;;;;;;;;11.00;9.67;;;;;3.85;84.47;103631.06;5023944;28;46225;-76
2022/01/13 11:24:57;;;;;;;;;13.33;10.33;;;;;3.77;85.35;103620.88;5003310;28;45463;-78
2022/01/13 11:27:22;;;;;;;;;8.00;8.00;;;;;3.80;84.92;103631.25;5000362;28;45277;-78
2022/01/13 11:29:49;;;;;;;;;10.00;7.00;;;;;3.68;85.03;103619.41;5001285;28;45325;-76
2022/01/13 11:32:16;;;;;;;;;8.67;8.33;;;;;3.71;84.67;103624.56;5004545;28;45288;-76
2022/01/13 11:34:42;;;;;;;;;11.33;9.33;;;;;3.68;85.26;103613.31;5001730;28;45435;-76
2022/01/13 11:37:08;;;;;;;;;31.25;27.00;;;;;3.69;84.86;103601.88;5000822;28;45762;-77
2022/01/13 11:39:38;;;;;;;;;13.33;11.00;;;;;3.79;85.66;103617.25;5004949;28;45239;-77
2022/01/13 11:42:06;;;;;;;;;11.67;11.33;;;;;3.77;84.79;103608.56;5004729;28;45295;-77
2022/01/13 11:44:33;;;;;;;;;10.67;9.67;;;;;3.75;84.86;103606.91;5021955;28;45534;-77
2022/01/13 11:46:59;;;;;;;;;12.00;11.00;;;;;3.71;85.08;103593.00;5008562;28;46145;-77
2022/01/13 11:50:17;;;;;;;;;9.00;8.67;;;;;3.84;85.26;103605.69;5001567;28;46387;-77
2022/01/13 11:52:14;;;;;;;;;10.00;9.67;;;;;3.87;85.28;103608.19;4999759;28;45356;-77